Private Wetterstation Nrnberg - Katzwang
Wetterdaten: September 2011
Datum Temp. A. Feuchte A. Luftdruck Regen Wind Richtung Taupunkt Windchill Windben
01.09.2011 17,6 C 72 % 1012 hPa 0,0 l/m 1,9 km/h N-NW 12,2 C 17,5 C 2,9 km/h
02.09.2011 19,9 C 79 % 1013 hPa 2,1 l/m 1,2 km/h O 15,8 C 19,9 C 2,2 km/h
03.09.2011 21,7 C 71 % 1012 hPa 0,0 l/m 1,0 km/h O-NO 15,8 C 21,7 C 2,0 km/h
04.09.2011 22,5 C 75 % 1009 hPa 12,9 l/m 8,2 km/h W-NW 17,5 C 21,3 C 9,2 km/h
05.09.2011 16,8 C 80 % 1016 hPa 3,1 l/m 5,3 km/h W-NW 13,2 C 15,9 C 6,3 km/h
06.09.2011 17,1 C 68 % 1017 hPa 0,0 l/m 3,8 km/h N 10,7 C 17,1 C 4,8 km/h
07.09.2011 15,5 C 77 % 1012 hPa 6,2 l/m 3,1 km/h W-NW 11,5 C 14,9 C 4,1 km/h
08.09.2011 15,1 C 78 % 1010 hPa 0,5 l/m 5,1 km/h W-NW 11,1 C 14,1 C 6,1 km/h
09.09.2011 18,1 C 84 % 1012 hPa 0,0 l/m 0,0 km/h W-NW 15,3 C 18,1 C 1,0 km/h
10.09.2011 21,7 C 77 % 1011 hPa 0,0 l/m 3,9 km/h NO 17,4 C 21,6 C 4,9 km/h
11.09.2011 20,9 C 78 % 1011 hPa 0,5 l/m 3,4 km/h NO 16,6 C 20,8 C 4,4 km/h
12.09.2011 18,6 C 66 % 1013 hPa 0,0 l/m 3,8 km/h W-NW 11,9 C 18,4 C 4,8 km/h
13.09.2011 20,0 C 74 % 1013 hPa 0,0 l/m 2,0 km/h W-NW 15,1 C 19,9 C 3,0 km/h
14.09.2011 16,5 C 63 % 1017 hPa 0,0 l/m 3,1 km/h W-NW 9,1 C 16,4 C 4,1 km/h
15.09.2011 13,8 C 68 % 1019 hPa 0,0 l/m 0,0 km/h NO 7,6 C 13,8 C 1,0 km/h
16.09.2011 16,1 C 67 % 1016 hPa 0,0 l/m 3,4 km/h NO 9,4 C 15,6 C 4,4 km/h
17.09.2011 19,7 C 79 % 1010 hPa 1,0 l/m 0,7 km/h O-NO 15,8 C 19,7 C 1,7 km/h
18.09.2011 12,2 C 87 % 1007 hPa 10,4 l/m 7,5 km/h N-NO 10,1 C 10,6 C 8,5 km/h
19.09.2011 11,4 C 82 % 1013 hPa 0,0 l/m 3,6 km/h N-NO 8,4 C 10,8 C 4,6 km/h
20.09.2011 12,7 C 79 % 1022 hPa 0,0 l/m 4,1 km/h O-NO 9,0 C 12,7 C 5,1 km/h
21.09.2011 14,0 C 77 % 1019 hPa 0,0 l/m 3,8 km/h NO 9,6 C 14,0 C 4,8 km/h
22.09.2011 14,5 C 80 % 1018 hPa 0,0 l/m 0,0 km/h W-NW 10,9 C 14,5 C 1,0 km/h
23.09.2011 14,0 C 76 % 1017 hPa 0,0 l/m 4,3 km/h W-NW 9,6 C 13,2 C 5,3 km/h
24.09.2011 14,3 C 74 % 1015 hPa 0,0 l/m 1,7 km/h O 9,3 C 14,2 C 2,7 km/h
25.09.2011 16,4 C 76 % 1018 hPa 0,0 l/m 1,7 km/h N-NO 11,7 C 16,3 C 2,7 km/h
26.09.2011 16,9 C 75 % 1023 hPa 0,0 l/m 1,5 km/h NO 12,1 C 16,9 C 2,5 km/h
27.09.2011 17,5 C 74 % 1026 hPa 0,0 l/m 0,0 km/h O-NO 12,5 C 17,5 C 1,0 km/h
28.09.2011 17,5 C 77 % 1027 hPa 0,0 l/m 1,2 km/h NO 13,2 C 17,5 C 2,2 km/h
29.09.2011 15,8 C 72 % 1026 hPa 0,0 l/m 3,4 km/h O 10,4 C 15,4 C 4,4 km/h
30.09.2011 16,5 C 66 % 1024 hPa 0,0 l/m 2,2 km/h O 9,6 C 16,4 C 3,2 km/h
Min-Datum 16.09.11 14.09.11 18.09.11 8 Tage 01.09.11 - 16.09.11 19.09.11 01.09.11
Min-Zeit 07:20 16:20 06:20 - 00:00 - 07:00 05:50 00:00
Minimum 6,4 C 40 % 1004 hPa - 0,0 km/h - 3,8 C 5,1 C 1,0 km/h
Max-Datum 11.09.11 03.09.11 28.09.11 04.09.11 11.09.11 - 11.09.11 11.09.11 11.09.11
Max-Zeit 15:30 07:20 10:30 22:10 20:20 - 12:30 15:30 20:20
Maximum 29,8 C 88 % 1029 hPa 12,9 l/m 39,7 km/h
NO
- 20,4 C 29,8 C 82,4 km/h
NO
Durchschnitt 16,8 C 75 % 1016 hPa #36,8 l/m 2,8 km/h W-NW 12,1 C 16,6 C 3,8 km/h

Durchschnitt Minimum Temp.11,3 C
Durchschnitt Maximum Temp.23,3 C